Time;durP1;ratioP1;P1;durP2;ratioP2;P2;SDS_P1;SDS_P2;PMS_P1;PMS_P2;Temp;Humidity;BMP_temperature;BMP_pressure;BME280_temperature;BME280_humidity;BME280_pressure;Samples;Min_cycle;Max_cycle;Signal;HPM_P1;HPM_P2
2021/09/08 00:00:41;;;;;;;12.10;5.70;;;;;;;9.17;67.70;100390.46;1730302;82;21479;-62
2021/09/08 00:03:08;;;;;;;11.57;5.00;;;;;;;9.19;67.71;100391.28;1727532;82;21019;-62
2021/09/08 00:05:35;;;;;;;6.95;4.75;;;;;;;9.23;67.83;100393.78;1731247;82;20934;-62
2021/09/08 00:08:03;;;;;;;8.30;4.90;;;;;;;9.27;67.80;100395.38;1730692;81;21048;-62
2021/09/08 00:10:30;;;;;;;8.28;4.87;;;;;;;9.29;67.82;100395.73;1724672;82;20867;-62
2021/09/08 00:12:57;;;;;;;8.63;5.57;;;;;;;9.33;67.82;100394.77;1728692;82;20884;-62
2021/09/08 00:15:24;;;;;;;9.90;4.27;;;;;;;9.35;67.82;100397.30;1723375;82;20905;-63
2021/09/08 00:17:50;;;;;;;8.80;4.70;;;;;;;9.37;67.85;100396.81;1721607;82;20952;-63
2021/09/08 00:20:17;;;;;;;7.17;4.93;;;;;;;9.38;67.88;100390.27;1727933;81;21933;-63
2021/09/08 00:22:45;;;;;;;5.40;3.40;;;;;;;9.40;67.89;100398.86;1730378;81;21738;-64
2021/09/08 00:25:13;;;;;;;8.30;4.72;;;;;;;9.44;67.93;100399.64;1726689;81;20957;-63
2021/09/08 00:27:40;;;;;;;6.45;4.00;;;;;;;9.47;67.92;100389.11;1724483;81;20948;-63
2021/09/08 00:30:09;;;;;;;10.15;4.20;;;;;;;9.53;67.99;100391.97;1733384;81;21039;-63
2021/09/08 00:32:35;;;;;;;8.90;4.78;;;;;;;9.59;68.05;100391.31;1723920;82;21230;-63
2021/09/08 00:35:04;;;;;;;5.58;4.28;;;;;;;9.62;68.05;100393.81;1719377;81;20919;-63
2021/09/08 00:37:31;;;;;;;5.28;3.98;;;;;;;9.63;68.04;100392.94;1722132;81;20915;-63
2021/09/08 00:39:58;;;;;;;9.25;4.42;;;;;;;9.63;68.05;100385.11;1725610;82;20889;-63
2021/09/08 00:42:24;;;;;;;5.87;4.23;;;;;;;9.63;68.09;100392.05;1738128;80;20888;-63
2021/09/08 00:44:51;;;;;;;8.00;5.53;;;;;;;9.57;68.09;100393.11;1747170;80;22053;-63
2021/09/08 00:47:18;;;;;;;5.90;4.30;;;;;;;9.55;68.18;100387.11;1742922;80;20898;-63
2021/09/08 00:49:47;;;;;;;6.77;4.80;;;;;;;9.55;68.21;100389.72;1751085;80;20916;-63
2021/09/08 00:52:16;;;;;;;7.80;5.30;;;;;;;9.55;68.19;100387.11;1757191;80;20902;-63
2021/09/08 00:54:50;;;;;;;11.22;4.83;;;;;;;9.54;68.16;100397.12;1761954;80;20919;-63
2021/09/08 00:57:21;;;;;;;8.20;5.42;;;;;;;9.53;68.26;100391.52;1759026;80;21899;-63
2021/09/08 00:59:48;;;;;;;7.33;5.10;;;;;;;9.55;68.34;100387.11;1754266;80;20902;-63
2021/09/08 01:02:14;;;;;;;9.55;5.28;;;;;;;9.54;68.34;100384.54;1760271;80;20917;-62
2021/09/08 01:04:41;;;;;;;11.95;4.95;;;;;;;9.49;68.39;100387.28;1753410;80;20959;-63
2021/09/08 01:07:09;;;;;;;9.57;5.73;;;;;;;9.43;68.42;100384.88;1756676;79;20881;-63
2021/09/08 01:09:36;;;;;;;12.00;6.10;;;;;;;9.39;68.51;100387.20;1738831;80;21050;-62
2021/09/08 01:12:03;;;;;;;9.23;4.87;;;;;;;9.35;68.50;100389.48;1756839;80;20963;-63
2021/09/08 01:14:30;;;;;;;11.55;5.97;;;;;;;9.33;68.57;100391.31;1751847;80;20934;-63
2021/09/08 01:16:58;;;;;;;9.00;5.10;;;;;;;9.29;68.65;100381.86;1677931;83;20972;-63
2021/09/08 01:19:25;;;;;;;8.53;5.87;;;;;;;9.26;68.67;100384.56;1720469;82;21509;-63
2021/09/08 01:21:52;;;;;;;11.63;5.70;;;;;;;9.23;68.74;100384.66;1699759;82;21854;-63
2021/09/08 01:24:19;;;;;;;11.60;5.15;;;;;;;9.22;68.81;100382.97;1709471;82;21474;-63
2021/09/08 01:26:48;;;;;;;12.23;5.30;;;;;;;9.22;68.94;100382.97;1719149;82;21535;-63
2021/09/08 01:29:16;;;;;;;10.60;6.00;;;;;;;9.23;68.99;100382.06;1735332;80;21422;-63
2021/09/08 01:31:42;;;;;;;6.10;5.17;;;;;;;9.24;69.04;100383.75;1760267;80;21485;-63
2021/09/08 01:34:09;;;;;;;8.03;5.57;;;;;;;9.27;69.12;100382.35;1762500;80;21056;-63
2021/09/08 01:36:40;;;;;;;6.47;5.63;;;;;;;9.29;69.16;100384.47;1755165;80;20849;-63
2021/09/08 01:39:07;;;;;;;8.88;5.75;;;;;;;9.31;69.22;100378.77;1761262;80;20967;-63
2021/09/08 01:41:34;;;;;;;12.95;6.97;;;;;;;9.33;69.22;100383.48;1742774;80;20891;-63
2021/09/08 01:44:02;;;;;;;7.83;5.37;;;;;;;9.34;69.30;100385.18;1736577;80;21020;-63
2021/09/08 01:46:28;;;;;;;;;;;;;;;9.38;69.34;100384.17;1737157;80;21893;-63
2021/09/08 01:48:55;;;;;;;14.50;7.47;;;;;;;9.39;69.47;100378.08;1734545;80;20094;-63
2021/09/08 01:51:21;;;;;;;8.80;5.78;;;;;;;9.38;69.39;100384.17;1741847;80;20943;-63
2021/09/08 01:53:48;;;;;;;10.60;6.85;;;;;;;9.38;69.42;100386.77;1738686;80;20904;-63
2021/09/08 01:56:15;;;;;;;6.95;5.83;;;;;;;9.37;69.43;100387.69;1734948;80;21512;-62
2021/09/08 01:58:42;;;;;;;8.15;5.60;;;;;;;9.34;69.45;100390.39;1740504;80;22167;-63
2021/09/08 02:01:09;;;;;;;9.58;5.92;;;;;;;9.32;69.48;100392.19;1732519;80;20881;-62
2021/09/08 02:03:36;;;;;;;9.33;5.93;;;;;;;9.34;69.65;100385.18;1748002;80;20859;-63
2021/09/08 02:06:25;;;;;;;11.65;7.67;;;;;;;9.33;69.66;100390.00;1735037;80;21677;-63
2021/09/08 02:08:58;;;;;;;10.68;6.78;;;;;;;9.31;69.71;100380.07;1732491;80;21479;-63
2021/09/08 02:11:29;;;;;;;9.15;6.00;;;;;;;9.31;69.79;100388.73;1738736;80;21005;-63
2021/09/08 02:13:56;;;;;;;12.70;7.15;;;;;;;9.30;69.83;100381.83;1740275;80;20907;-62
2021/09/08 02:16:22;;;;;;;14.85;6.22;;;;;;;9.29;69.83;100377.95;1742959;80;20891;-63
2021/09/08 02:18:50;;;;;;;9.63;6.87;;;;;;;9.25;69.86;100377.66;1744785;80;20947;-63
2021/09/08 02:21:17;;;;;;;8.93;5.78;;;;;;;9.21;69.93;100377.34;1732541;80;21012;-63
2021/09/08 02:23:45;;;;;;;11.05;6.83;;;;;;;9.16;69.99;100377.50;1699312;82;21628;-63
2021/09/08 02:26:11;;;;;;;10.03;5.95;;;;;;;9.12;70.05;100375.42;1677539;83;26817;-63
2021/09/08 02:28:39;;;;;;;9.40;5.50;;;;;;;9.07;70.05;100374.70;1731881;80;21018;-63
2021/09/08 02:31:06;;;;;;;;;;;;;;;9.03;70.13;100371.80;1736432;80;21147;-62
2021/09/08 02:33:33;;;;;;;14.60;6.20;;;;;;;8.93;70.23;100371.67;1738773;80;26328;-63
2021/09/08 02:36:00;;;;;;;7.43;4.70;;;;;;;8.84;70.18;100366.74;1739611;80;21049;-63
2021/09/08 02:38:27;;;;;;;11.00;5.17;;;;;;;8.72;70.22;100374.02;1731835;80;21696;-62
2021/09/08 02:40:54;;;;;;;12.65;6.58;;;;;;;8.62;70.32;100364.76;1740046;80;21552;-62
2021/09/08 02:43:20;;;;;;;10.28;6.97;;;;;;;8.59;70.49;100368.75;1759150;80;21457;-62
2021/09/08 02:45:47;;;;;;;13.00;6.85;;;;;;;8.62;70.66;100369.96;1751911;80;20968;-63
2021/09/08 02:48:14;;;;;;;8.07;5.53;;;;;;;8.64;70.75;100373.39;1759551;80;20982;-62
2021/09/08 02:50:40;;;;;;;9.23;6.63;;;;;;;8.66;70.76;100364.24;1761744;80;20942;-63
2021/09/08 02:53:07;;;;;;;16.52;7.92;;;;;;;8.67;70.79;100365.94;1755415;80;20995;-63
2021/09/08 02:55:34;;;;;;;12.73;7.28;;;;;;;8.67;70.88;100361.58;1752061;80;20944;-63
2021/09/08 02:58:00;;;;;;;11.83;8.83;;;;;;;8.68;70.91;100362.00;1742287;80;20920;-63
2021/09/08 03:00:28;;;;;;;11.93;7.75;;;;;;;8.69;71.12;100365.00;1746915;80;21049;-62
2021/09/08 03:02:54;;;;;;;9.48;6.12;;;;;;;8.72;71.09;100363.61;1754255;80;20927;-63
2021/09/08 03:05:21;;;;;;;11.48;7.42;;;;;;;8.73;71.14;100369.20;1753993;80;21453;-62
2021/09/08 03:07:47;;;;;;;11.97;7.50;;;;;;;8.74;71.15;100363.12;1751191;80;20929;-63
2021/09/08 03:10:14;;;;;;;11.43;7.77;;;;;;;8.77;71.24;100358.73;1751702;80;20936;-63
2021/09/08 03:12:41;;;;;;;20.77;7.87;;;;;;;8.79;71.27;100360.81;1752254;79;21035;-63
2021/09/08 03:15:08;;;;;;;12.23;8.43;;;;;;;8.79;71.29;100364.27;1758358;80;21431;-62
2021/09/08 03:17:35;;;;;;;;;;;;;;;8.81;71.35;100364.23;1763925;80;20948;-62
2021/09/08 03:20:01;;;;;;;14.63;8.63;;;;;;;8.82;71.52;100362.02;1752161;80;20495;-62
2021/09/08 03:22:28;;;;;;;11.83;7.87;;;;;;;8.82;71.46;100370.71;1755007;79;20940;-62
2021/09/08 03:24:55;;;;;;;11.45;5.22;;;;;;;8.84;71.45;100365.44;1756152;80;21907;-62
2021/09/08 03:27:21;;;;;;;9.30;5.62;;;;;;;8.82;71.39;100364.62;1755050;80;20920;-62
2021/09/08 03:29:48;;;;;;;19.95;6.85;;;;;;;8.76;71.25;100363.52;1749071;80;21485;-62
2021/09/08 03:32:14;;;;;;;15.63;6.70;;;;;;;8.60;71.11;100363.09;1753880;80;20951;-62
2021/09/08 03:34:41;;;;;;;19.12;7.22;;;;;;;8.40;71.11;100355.86;1748103;80;21439;-63
2021/09/08 03:37:08;;;;;;;13.15;6.00;;;;;;;8.21;71.29;100364.16;1742295;80;21980;-63
2021/09/08 03:39:34;;;;;;;15.75;6.45;;;;;;;8.04;71.42;100359.41;1749604;80;20946;-63
2021/09/08 03:42:01;;;;;;;14.73;6.30;;;;;;;7.93;71.67;100363.20;1753638;79;21053;-63
2021/09/08 03:44:27;;;;;;;14.23;6.58;;;;;;;7.83;71.78;100360.81;1757223;80;20956;-62
2021/09/08 03:46:54;;;;;;;8.20;5.85;;;;;;;7.74;71.88;100359.75;1750914;80;21471;-63
2021/09/08 03:49:21;;;;;;;12.80;7.28;;;;;;;7.69;72.01;100360.31;1765420;80;21077;-62
2021/09/08 03:51:47;;;;;;;13.35;8.35;;;;;;;7.64;72.14;100359.57;1759985;80;20946;-63
2021/09/08 03:54:14;;;;;;;16.02;9.10;;;;;;;7.65;72.27;100353.50;1740095;80;20904;-63
2021/09/08 03:56:40;;;;;;;21.27;8.70;;;;;;;7.72;72.48;100357.63;1749536;80;21491;-63
2021/09/08 03:59:07;;;;;;;12.70;8.15;;;;;;;7.82;72.69;100356.97;1753199;80;20971;-63
2021/09/08 04:01:34;;;;;;;13.18;9.43;;;;;;;7.92;72.80;100357.57;1754689;80;21088;-63
2021/09/08 04:04:01;;;;;;;20.97;9.13;;;;;;;7.99;72.75;100356.08;1756179;80;20940;-63
2021/09/08 04:06:27;;;;;;;18.45;9.00;;;;;;;8.08;72.86;100358.42;1760966;80;21427;-63
2021/09/08 04:08:54;;;;;;;24.85;10.03;;;;;;;8.14;72.86;100356.55;1750888;80;21011;-62
2021/09/08 04:11:21;;;;;;;19.53;9.93;;;;;;;8.16;72.90;100351.72;1727749;80;20903;-62
2021/09/08 04:13:47;;;;;;;19.17;10.20;;;;;;;8.17;72.84;100352.11;1761776;80;21240;-63
2021/09/08 04:16:14;;;;;;;15.20;7.95;;;;;;;8.19;72.96;100346.88;1740440;80;20918;-63
2021/09/08 04:18:40;;;;;;;17.42;10.00;;;;;;;8.21;73.02;100347.25;1751902;80;20904;-62
2021/09/08 04:21:07;;;;;;;19.55;10.63;;;;;;;8.27;73.07;100348.38;1757913;80;20913;-63
2021/09/08 04:23:34;;;;;;;24.75;10.98;;;;;;;8.44;73.22;100341.87;1752696;80;20935;-63
2021/09/08 04:26:01;;;;;;;34.15;9.45;;;;;;;8.67;73.22;100343.81;1751427;79;25984;-62
2021/09/08 04:28:28;;;;;;;39.25;9.78;;;;;;;8.96;73.21;100343.80;1747700;80;20905;-63
2021/09/08 04:30:54;;;;;;;29.07;7.90;;;;;;;9.30;72.97;100344.47;1752246;80;21003;-63
2021/09/08 04:33:21;;;;;;;29.13;8.23;;;;;;;9.64;72.91;100340.33;1743837;80;20981;-63
2021/09/08 04:35:48;;;;;;;45.67;8.08;;;;;;;10.04;72.74;100342.41;1749343;80;20907;-63
2021/09/08 04:38:14;;;;;;;16.80;6.85;;;;;;;10.49;72.66;100342.99;1749111;79;20989;-63
2021/09/08 04:40:41;;;;;;;13.55;6.65;;;;;;;10.97;72.43;100344.64;1749284;80;20915;-64
2021/09/08 04:43:08;;;;;;;13.83;7.25;;;;;;;11.43;72.37;100336.29;1749229;80;20896;-64
2021/09/08 04:45:36;;;;;;;22.47;6.43;;;;;;;11.96;72.30;100336.30;1747470;80;20969;-64
2021/09/08 04:48:03;;;;;;;63.87;10.00;;;;;;;12.46;71.96;100329.72;1712633;80;20963;-63
2021/09/08 04:50:29;;;;;;;100.70;12.88;;;;;;;12.95;71.83;100336.16;1742051;80;21075;-64
2021/09/08 04:52:56;;;;;;;37.70;8.83;;;;;;;13.40;71.51;100336.68;1750883;80;20935;-64
2021/09/08 04:55:23;;;;;;;69.50;11.07;;;;;;;13.82;71.36;100331.05;1750617;80;21580;-63
2021/09/08 04:57:49;;;;;;;272.37;27.37;;;;;;;14.17;70.86;100335.41;1738283;80;20940;-64
2021/09/08 05:00:17;;;;;;;284.87;29.92;;;;;;;14.46;70.83;100324.21;1737814;80;20946;-64
2021/09/08 05:02:43;;;;;;;240.70;26.52;;;;;;;14.81;70.79;100331.13;1734122;80;20941;-64
2021/09/08 05:05:11;;;;;;;184.52;20.45;;;;;;;15.12;70.48;100327.64;1755445;80;21429;-64
2021/09/08 05:07:37;;;;;;;135.70;17.30;;;;;;;15.41;70.35;100324.20;1751856;80;21477;-63
2021/09/08 05:10:05;;;;;;;89.20;13.60;;;;;;;15.65;70.08;100331.59;1746358;80;20933;-64
2021/09/08 05:12:33;;;;;;;80.38;11.30;;;;;;;15.94;70.18;100321.19;1750556;80;20986;-64
2021/09/08 05:15:00;;;;;;;77.60;12.53;;;;;;;16.40;70.47;100321.00;1754056;80;21081;-64
2021/09/08 05:17:27;;;;;;;79.53;12.20;;;;;;;16.91;70.36;100323.96;1752587;80;20910;-64
2021/09/08 05:19:54;;;;;;;66.77;10.28;;;;;;;17.40;69.91;100326.06;1747390;80;20938;-64
2021/09/08 05:22:21;;;;;;;60.50;10.43;;;;;;;17.75;69.21;100322.84;1750240;80;21425;-65
2021/09/08 05:24:47;;;;;;;96.78;14.20;;;;;;;17.85;68.56;100323.95;1747838;80;20876;-64
2021/09/08 05:27:14;;;;;;;102.95;12.50;;;;;;;17.99;68.43;100323.86;1739609;80;20965;-65
2021/09/08 05:29:41;;;;;;;106.20;13.38;;;;;;;18.33;68.50;100329.45;1748406;80;20945;-64
2021/09/08 05:32:08;;;;;;;103.17;11.53;;;;;;;18.54;68.12;100322.66;1726318;80;21468;-63
2021/09/08 05:34:40;;;;;;;80.75;11.57;;;;;;;18.77;68.02;100322.84;1750169;80;20974;-63
2021/09/08 05:37:07;;;;;;;84.87;12.50;;;;;;;19.03;67.79;100322.77;1744845;80;20954;-63
2021/09/08 05:39:33;;;;;;;;;;;;;;;19.32;67.55;100318.80;1743076;80;21085;-63
2021/09/08 05:42:00;;;;;;;93.52;12.82;;;;;;;19.59;66.93;100321.67;1753088;80;28183;-63
2021/09/08 05:44:30;;;;;;;49.13;9.50;;;;;;;19.79;67.08;100314.41;1736147;81;20925;-64
2021/09/08 05:46:57;;;;;;;42.30;10.72;;;;;;;20.25;67.34;100308.22;1734985;82;20895;-64
2021/09/08 05:49:24;;;;;;;38.40;9.98;;;;;;;20.60;66.30;100314.38;1733113;82;20905;-63
2021/09/08 05:51:51;;;;;;;23.35;9.20;;;;;;;20.73;65.83;100314.59;1737739;82;21036;-63
2021/09/08 05:54:17;;;;;;;;;;;;;;;21.10;66.45;100314.75;1692799;82;21547;-63
2021/09/08 05:56:44;;;;;;;18.62;8.33;;;;;;;21.35;64.93;100316.23;1646735;84;20459;-64
2021/09/08 05:59:11;;;;;;;65.55;11.90;;;;;;;21.56;65.53;100313.12;1680886;84;20947;-64
2021/09/08 06:01:39;;;;;;;70.22;12.98;;;;;;;21.92;65.17;100307.00;1730810;82;20923;-64
2021/09/08 06:04:10;;;;;;;32.63;9.48;;;;;;;22.12;64.76;100312.80;1725854;81;21063;-64
2021/09/08 06:06:38;;;;;;;29.40;8.55;;;;;;;22.40;64.52;100309.08;1726043;81;20878;-64
2021/09/08 06:09:04;;;;;;;17.52;7.35;;;;;;;22.56;64.18;100309.42;1728404;82;20880;-64
2021/09/08 06:11:31;;;;;;;;;;;;;;;22.80;63.65;100309.56;1731382;81;20927;-64
2021/09/08 06:13:57;;;;;;;;;;;;;;;22.83;62.92;100311.12;1734061;81;20095;-64
2021/09/08 06:16:23;;;;;;;;;;;;;;;22.81;62.86;100317.89;1730557;81;21034;-64
2021/09/08 06:18:51;;;;;;;14.60;7.42;;;;;;;22.93;62.11;100311.95;1727603;81;20122;-64
2021/09/08 06:21:20;;;;;;;59.80;10.10;;;;;;;23.10;62.93;100317.12;1680399;82;20995;-63
2021/09/08 06:23:48;;;;;;;33.15;7.75;;;;;;;23.26;62.07;100319.25;1727089;81;21546;-63
2021/09/08 06:26:17;;;;;;;57.60;10.40;;;;;;;23.36;61.94;100317.44;1727960;81;20930;-63
2021/09/08 06:28:45;;;;;;;39.85;9.65;;;;;;;23.29;61.22;100317.14;1727086;81;21301;-64
2021/09/08 06:31:13;;;;;;;20.50;7.95;;;;;;;23.33;61.13;100318.56;1727858;81;20933;-64
2021/09/08 06:33:40;;;;;;;15.40;7.22;;;;;;;23.40;60.62;100317.00;1728893;81;20923;-64
2021/09/08 06:36:06;;;;;;;23.12;7.72;;;;;;;23.56;60.79;100318.27;1729276;81;20935;-63
2021/09/08 06:38:33;;;;;;;23.20;8.05;;;;;;;23.70;60.29;100317.83;1726122;82;20990;-64
2021/09/08 06:41:00;;;;;;;30.17;8.60;;;;;;;23.61;59.78;100319.99;1725130;81;21473;-64
2021/09/08 06:43:27;;;;;;;57.48;11.68;;;;;;;23.69;59.70;100316.13;1730624;80;20901;-64
2021/09/08 06:45:54;;;;;;;21.65;14.85;;;;;;;23.60;59.40;100315.16;1710071;81;20923;-64
2021/09/08 06:48:21;;;;;;;69.17;57.62;;;;;;;23.61;59.18;100311.53;1746888;80;20870;-64
2021/09/08 06:50:49;;;;;;;51.92;11.10;;;;;;;23.63;59.19;100306.04;1718858;80;21463;-64
2021/09/08 06:53:15;;;;;;;121.97;15.83;;;;;;;23.82;58.67;100305.20;1716219;80;22247;-63
2021/09/08 06:55:42;;;;;;;116.22;16.00;;;;;;;23.83;58.13;100303.70;1734655;80;20948;-64
2021/09/08 06:58:09;;;;;;;;;;;;;;;23.94;58.19;100305.87;1752874;80;20907;-63
2021/09/08 07:00:37;;;;;;;200.05;18.77;;;;;;;23.86;57.39;100299.45;1752081;80;20118;-64
2021/09/08 07:03:04;;;;;;;184.40;20.55;;;;;;;23.99;57.84;100302.28;1747089;80;20916;-64
2021/09/08 07:05:31;;;;;;;76.92;10.95;;;;;;;23.99;57.51;100304.45;1751234;80;22425;-63
2021/09/08 07:08:01;;;;;;;55.75;10.58;;;;;;;24.00;57.42;100303.48;1744782;80;20961;-63
2021/09/08 07:10:27;;;;;;;127.90;15.38;;;;;;;23.98;57.16;100300.61;1747739;80;21049;-63
2021/09/08 07:12:54;;;;;;;68.00;12.68;;;;;;;23.90;57.09;100302.66;1739730;80;21941;-63
2021/09/08 07:15:21;;;;;;;156.18;16.70;;;;;;;23.79;57.00;100300.16;1747806;80;21040;-63
2021/09/08 07:17:48;;;;;;;79.42;13.70;;;;;;;23.64;56.86;100299.74;1750145;79;21835;-63
2021/09/08 07:20:16;;;;;;;124.02;15.40;;;;;;;23.51;56.63;100300.02;1710413;80;20908;-63
2021/09/08 07:22:43;;;;;;;93.67;13.20;;;;;;;23.25;56.29;100302.43;1740117;80;21507;-63
2021/09/08 07:25:11;;;;;;;69.85;11.53;;;;;;;22.83;55.80;100309.29;1751939;80;20910;-63
2021/09/08 07:27:38;;;;;;;128.90;17.07;;;;;;;22.44;55.66;100305.68;1747654;80;20987;-64
2021/09/08 07:30:06;;;;;;;161.97;19.32;;;;;;;22.25;56.08;100309.09;1742666;80;21091;-64
2021/09/08 07:32:33;;;;;;;100.05;17.17;;;;;;;22.25;56.05;100302.45;1740609;80;20930;-65
2021/09/08 07:35:00;;;;;;;113.00;14.13;;;;;;;22.23;55.98;100304.39;1738034;80;20912;-64
2021/09/08 07:37:27;;;;;;;;;;;;;;;22.08;55.58;100303.88;1749939;80;20908;-61
2021/09/08 07:39:55;;;;;;;73.28;11.53;;;;;;;21.96;55.35;100307.11;1716257;80;20096;-61
2021/09/08 07:42:22;;;;;;;65.40;12.30;;;;;;;21.90;55.36;100304.95;1744589;80;21037;-61
2021/09/08 07:44:51;;;;;;;178.10;18.77;;;;;;;21.78;55.41;100308.67;1762343;79;20949;-62
2021/09/08 07:47:24;;;;;;;32.45;8.10;;;;;;;21.71;55.39;100311.50;1752374;80;20894;-66
2021/09/08 07:50:12;;;;;;;47.27;9.70;;;;;;;21.74;55.48;100307.25;1749779;80;20949;-66
2021/09/08 07:52:41;;;;;;;48.95;9.28;;;;;;;21.74;55.39;100308.58;1763853;79;21013;-61
2021/09/08 07:55:11;;;;;;;24.98;7.95;;;;;;;21.79;55.28;100307.22;1759381;80;21002;-61
2021/09/08 07:57:38;;;;;;;22.62;6.60;;;;;;;21.85;55.40;100313.83;1674579;83;21017;-62
2021/09/08 08:00:08;;;;;;;178.62;19.55;;;;;;;21.89;55.31;100312.58;1715391;81;21419;-62
2021/09/08 08:02:50;;;;;;;58.33;12.73;;;;;;;21.89;55.16;100317.90;1698329;83;21586;-62
2021/09/08 08:05:19;;;;;;;49.30;9.60;;;;;;;21.98;55.28;100309.13;1717536;81;20935;-62
2021/09/08 08:07:47;;;;;;;93.22;12.65;;;;;;;22.06;55.16;100317.29;1711057;81;21106;-62
2021/09/08 08:10:17;;;;;;;104.80;14.68;;;;;;;22.13;55.26;100318.46;1692518;81;20919;-62
2021/09/08 08:12:44;;;;;;;71.20;14.03;;;;;;;22.26;55.28;100322.74;1714893;81;20967;-62
2021/09/08 08:15:11;;;;;;;;;;;;;;;22.32;55.04;100324.86;1717740;81;20983;-62
2021/09/08 08:17:38;;;;;;;108.27;13.35;;;;;;;22.46;55.08;100331.18;1685699;83;20124;-62
2021/09/08 08:20:08;;;;;;;65.80;10.23;;;;;;;22.39;54.76;100323.37;1688170;83;21125;-62
2021/09/08 08:22:37;;;;;;;92.47;13.60;;;;;;;22.29;54.57;100323.34;1693208;83;20969;-62
2021/09/08 08:25:06;;;;;;;68.85;10.85;;;;;;;22.25;54.84;100319.24;1719250;81;21517;-62
2021/09/08 08:27:33;;;;;;;60.67;10.55;;;;;;;22.27;54.65;100325.28;1698656;83;21615;-62
2021/09/08 08:29:59;;;;;;;;;;;;;;;22.31;54.91;100323.19;1727290;81;20948;-62
2021/09/08 08:32:26;;;;;;;81.72;15.63;;;;;;;22.39;54.55;100322.03;1673290;83;21004;-62
2021/09/08 08:34:54;;;;;;;124.30;20.12;;;;;;;22.43;54.26;100326.59;1716249;81;21885;-62
2021/09/08 08:37:20;;;;;;;;;;;;;;;22.05;54.05;100318.28;1694656;81;20962;-62
2021/09/08 08:39:47;;;;;;;43.95;10.40;;;;;;;22.07;54.72;100324.31;1711247;81;20133;-62
2021/09/08 08:42:24;;;;;;;398.32;50.98;;;;;;;22.20;54.01;100331.25;1711106;81;20932;-62
2021/09/08 08:44:51;;;;;;;;;;;;;;;22.09;54.27;100322.34;1705305;81;21068;-62
2021/09/08 08:47:19;;;;;;;52.50;12.50;;;;;;;22.15;54.28;100320.13;1702986;82;20124;-62
2021/09/08 08:49:46;;;;;;;144.75;21.82;;;;;;;22.13;53.77;100321.13;1673877;85;21420;-62
2021/09/08 08:52:15;;;;;;;72.03;13.85;;;;;;;21.93;54.18;100320.67;1716949;82;20918;-63
2021/09/08 08:54:46;;;;;;;75.57;14.73;;;;;;;22.00;54.53;100319.16;1698444;83;20954;-62
2021/09/08 08:57:15;;;;;;;85.00;10.95;;;;;;;22.22;54.51;100316.02;1699782;83;20981;-62
2021/09/08 08:59:45;;;;;;;44.95;8.35;;;;;;;22.37;54.33;100317.33;1668312;83;20950;-62
2021/09/08 09:02:30;;;;;;;14.03;5.78;;;;;;;22.49;54.52;100310.95;1699132;83;20982;-62
2021/09/08 09:05:02;;;;;;;81.40;10.20;;;;;;;22.54;54.38;100314.02;1700143;82;20980;-63
2021/09/08 09:07:44;;;;;;;75.35;9.25;;;;;;;22.55;54.31;100307.74;1699312;82;20907;-62
2021/09/08 09:10:14;;;;;;;23.67;7.05;;;;;;;22.60;54.32;100315.30;1702635;82;21260;-62
2021/09/08 09:12:44;;;;;;;21.70;6.60;;;;;;;22.65;54.11;100312.24;1704345;82;20996;-61
2021/09/08 09:15:21;;;;;;;20.92;6.85;;;;;;;22.66;54.09;100308.59;1697879;82;20885;-62
2021/09/08 09:17:49;;;;;;;89.05;20.90;;;;;;;22.73;54.03;100312.41;1699700;82;20998;-61
2021/09/08 09:20:24;;;;;;;46.77;13.35;;;;;;;22.63;53.81;100307.54;1672128;83;21007;-61
2021/09/08 09:22:57;;;;;;;19.32;7.60;;;;;;;22.67;54.03;100307.63;1699216;81;22048;-61
2021/09/08 09:25:29;;;;;;;105.45;19.85;;;;;;;22.72;53.86;100308.08;1687203;83;21444;-61
2021/09/08 09:28:03;;;;;;;33.00;8.30;;;;;;;22.83;53.85;100307.12;1703628;80;21096;-61
2021/09/08 09:30:34;;;;;;;30.68;8.03;;;;;;;22.79;53.65;100303.87;1702228;82;20966;-62
2021/09/08 09:33:05;;;;;;;22.52;5.80;;;;;;;22.83;53.75;100297.80;1672796;84;20938;-61
2021/09/08 09:35:34;;;;;;;118.95;19.27;;;;;;;22.77;53.37;100303.19;1702274;82;21774;-62
2021/09/08 09:38:04;;;;;;;452.65;78.80;;;;;;;22.65;53.48;100296.27;1702758;82;20910;-62
2021/09/08 09:40:35;;;;;;;389.12;65.87;;;;;;;22.66;53.47;100297.95;1700021;82;21018;-62
2021/09/08 09:43:05;;;;;;;29.60;9.55;;;;;;;22.68;53.35;100296.83;1705770;81;21026;-62
2021/09/08 09:45:38;;;;;;;24.60;9.10;;;;;;;22.69;53.33;100292.38;1660892;84;20988;-61
2021/09/08 09:48:07;;;;;;;25.60;6.95;;;;;;;22.73;53.25;100296.44;1687558;83;21026;-61
2021/09/08 09:50:34;;;;;;;30.97;8.38;;;;;;;22.77;53.19;100288.55;1721341;81;20985;-61
2021/09/08 09:53:03;;;;;;;48.08;10.23;;;;;;;22.76;52.95;100285.52;1679680;84;20874;-61
2021/09/08 09:55:30;;;;;;;11.08;6.05;;;;;;;22.70;52.91;100287.39;1718202;81;21066;-61
2021/09/08 09:57:57;;;;;;;;;;;;;;;22.65;52.90;100285.63;1716028;81;20962;-61
2021/09/08 10:00:24;;;;;;;23.47;6.87;;;;;;;22.69;52.71;100273.75;1711469;81;21190;-61
2021/09/08 10:02:52;;;;;;;24.60;7.25;;;;;;;22.69;52.77;100277.74;1713736;81;21449;-61
2021/09/08 10:05:19;;;;;;;28.25;7.33;;;;;;;22.65;52.53;100270.98;1716975;81;20924;-61
2021/09/08 10:07:54;;;;;;;;;;;;;;;22.62;52.53;100268.61;1717552;81;21585;-62
2021/09/08 10:10:30;;;;;;;28.23;6.78;;;;;;;22.61;52.54;100258.45;1715647;81;20096;-61
2021/09/08 10:13:06;;;;;;;27.17;7.10;;;;;;;22.62;52.37;100264.61;1682273;83;21022;-61
2021/09/08 10:15:34;;;;;;;25.82;6.67;;;;;;;22.62;52.38;100270.77;1669731;84;21005;-61
2021/09/08 10:18:10;;;;;;;15.60;5.97;;;;;;;22.63;52.23;100260.96;1710773;81;20951;-61
2021/09/08 10:20:36;;;;;;;14.03;5.25;;;;;;;22.61;52.23;100262.94;1680527;81;20961;-61
2021/09/08 10:23:09;;;;;;;19.92;5.97;;;;;;;22.69;52.40;100267.09;1713323;81;21006;-60
2021/09/08 10:25:36;;;;;;;11.55;5.92;;;;;;;22.79;52.41;100262.11;1675483;83;21049;-61
2021/09/08 10:28:06;;;;;;;11.20;5.35;;;;;;;22.85;52.28;100258.05;1717678;81;20919;-61
2021/09/08 10:30:33;;;;;;;9.08;5.20;;;;;;;22.89;52.19;100250.16;1676081;83;20968;-61
2021/09/08 10:33:04;;;;;;;22.80;6.30;;;;;;;22.93;52.28;100249.38;1681612;83;20955;-61
2021/09/08 10:35:34;;;;;;;11.97;5.78;;;;;;;22.93;51.91;100246.72;1681801;83;21670;-61
2021/09/08 10:38:00;;;;;;;68.70;9.75;;;;;;;22.87;52.04;100250.78;1658149;83;21077;-61
2021/09/08 10:40:30;;;;;;;42.33;7.65;;;;;;;22.92;52.17;100243.22;1681434;83;20907;-61
2021/09/08 10:43:00;;;;;;;80.67;9.00;;;;;;;23.03;52.03;100248.10;1678181;83;21537;-61
2021/09/08 10:45:34;;;;;;;34.83;6.58;;;;;;;23.01;51.72;100239.74;1675060;83;20992;-61
2021/09/08 10:48:03;;;;;;;31.33;7.78;;;;;;;22.98;51.75;100236.53;1666688;83;21039;-61
2021/09/08 10:50:47;;;;;;;24.00;5.83;;;;;;;22.97;51.79;100234.86;1618247;84;21055;-61
2021/09/08 10:53:29;;;;;;;8.98;5.28;;;;;;;23.04;52.02;100237.79;1703246;82;21381;-61
2021/09/08 10:55:57;;;;;;;5.25;4.55;;;;;;;23.17;51.92;100236.53;1703249;82;20907;-61
2021/09/08 10:58:24;;;;;;;43.15;8.08;;;;;;;23.21;51.81;100229.92;1701111;82;20958;-61
2021/09/08 11:00:50;;;;;;;13.62;5.37;;;;;;;23.25;51.71;100233.16;1702986;82;21473;-61
2021/09/08 11:03:23;;;;;;;19.40;5.87;;;;;;;23.29;51.74;100229.22;1704674;82;21011;-61
2021/09/08 11:05:56;;;;;;;12.25;5.67;;;;;;;23.32;51.61;100224.94;1713940;82;21567;-62
2021/09/08 11:08:35;;;;;;;11.80;5.62;;;;;;;23.31;51.50;100223.77;1706643;82;21438;-61
2021/09/08 11:11:17;;;;;;;11.35;5.70;;;;;;;23.30;51.48;100226.92;1706199;82;20994;-61
2021/09/08 11:13:47;;;;;;;19.98;5.03;;;;;;;23.32;51.42;100227.59;1707752;82;20934;-62
2021/09/08 11:16:53;;;;;;;30.55;6.78;;;;;;;23.42;51.46;100211.11;1723535;82;21048;-61
2021/09/08 11:19:13;;;;;;;11.10;5.40;;;;;;;23.40;51.21;100222.40;1707702;81;28173;-62
2021/09/08 11:21:40;;;;;;;66.35;9.65;;;;;;;23.43;51.35;100223.94;1718364;82;20900;-61
2021/09/08 11:24:11;;;;;;;41.75;7.87;;;;;;;23.46;51.08;100220.48;1721888;82;21497;-62
2021/09/08 11:26:40;;;;;;;20.45;6.20;;;;;;;23.43;51.15;100216.78;1717779;82;21473;-61